Time;durP1;ratioP1;P1;durP2;ratioP2;P2;SDS_P1;SDS_P2;PMS_P1;PMS_P2;Temp;Humidity;BMP_temperature;BMP_pressure;BME280_temperature;BME280_humidity;BME280_pressure;Samples;Min_cycle;Max_cycle;Signal;HPM_P1;HPM_P2
2022/12/10 00:01:36;;;;;;;48.30;20.53;;;0.20;99.90;;;;;;5044643;28;20856;-51
2022/12/10 00:04:04;;;;;;;46.30;21.00;;;0.20;99.90;;;;;;5062986;28;20210;-51
2022/12/10 00:06:33;;;;;;;47.10;20.10;;;0.20;99.90;;;;;;5059435;28;20225;-52
2022/12/10 00:09:01;;;;;;;45.17;21.30;;;0.20;99.90;;;;;;5063207;28;20286;-49
2022/12/10 00:11:28;;;;;;;48.23;19.33;;;0.20;99.90;;;;;;5060041;28;20275;-55
2022/12/10 00:13:57;;;;;;;48.40;20.97;;;0.30;99.90;;;;;;5062672;28;20205;-49
2022/12/10 00:16:25;;;;;;;48.77;21.53;;;0.30;99.90;;;;;;5038980;28;20661;-53
2022/12/10 00:18:53;;;;;;;48.80;20.77;;;0.30;99.90;;;;;;5062037;28;20207;-45
2022/12/10 00:21:22;;;;;;;41.67;20.43;;;0.30;99.90;;;;;;5061737;28;20304;-53
2022/12/10 00:23:50;;;;;;;46.67;21.10;;;0.30;99.90;;;;;;5061401;28;21088;-48
2022/12/10 00:26:19;;;;;;;49.00;21.63;;;0.30;99.90;;;;;;5062639;28;20657;-53
2022/12/10 00:28:46;;;;;;;42.83;20.40;;;0.30;99.90;;;;;;5060685;28;20186;-48
2022/12/10 00:31:18;;;;;;;41.90;20.43;;;0.30;99.90;;;;;;5054156;28;20235;-51
2022/12/10 00:33:46;;;;;;;41.97;20.07;;;0.30;99.90;;;;;;5052351;28;20191;-48
2022/12/10 00:36:15;;;;;;;45.70;21.60;;;0.20;99.90;;;;;;5063111;28;20208;-58
2022/12/10 00:38:43;;;;;;;47.67;21.47;;;0.20;99.90;;;;;;5060201;28;20201;-45
2022/12/10 00:41:10;;;;;;;45.33;20.33;;;0.20;99.90;;;;;;5062917;28;20729;-47
2022/12/10 00:43:37;;;;;;;44.17;18.67;;;0.20;99.90;;;;;;5058634;28;20205;-44
2022/12/10 00:46:05;;;;;;;44.20;20.33;;;0.20;99.90;;;;;;5055725;28;20210;-48
2022/12/10 00:48:33;;;;;;;43.87;19.50;;;0.30;99.90;;;;;;5046118;28;20252;-54
2022/12/10 00:51:02;;;;;;;39.53;18.67;;;0.30;99.90;;;;;;5066930;28;20581;-49
2022/12/10 00:53:31;;;;;;;49.33;20.87;;;0.30;99.90;;;;;;5063530;28;20225;-59
2022/12/10 00:55:59;;;;;;;41.63;18.93;;;0.30;99.90;;;;;;5067145;28;20216;-48
2022/12/10 00:58:28;;;;;;;38.17;17.87;;;0.30;99.90;;;;;;5064276;28;20208;-57
2022/12/10 01:00:55;;;;;;;41.33;18.73;;;0.30;99.90;;;;;;5066248;28;20719;-46
2022/12/10 01:03:23;;;;;;;33.83;17.60;;;0.30;99.90;;;;;;5048432;28;20205;-59
2022/12/10 01:05:52;;;;;;;40.40;18.93;;;0.30;99.90;;;;;;5059356;28;20963;-51
2022/12/10 01:08:19;;;;;;;39.50;16.93;;;0.30;99.90;;;;;;5063986;28;20556;-57
2022/12/10 01:10:53;;;;;;;37.33;19.20;;;0.30;99.90;;;;;;5062923;28;20220;-52
2022/12/10 01:13:20;;;;;;;34.80;17.60;;;0.30;99.90;;;;;;5064811;28;20224;-57
2022/12/10 01:15:47;;;;;;;38.70;18.00;;;0.30;99.90;;;;;;5063683;28;20208;-49
2022/12/10 01:18:13;;;;;;;38.07;18.00;;;0.30;99.90;;;;;;5058949;28;20216;-55
2022/12/10 01:20:41;;;;;;;36.77;18.13;;;0.30;99.90;;;;;;5040718;28;20575;-48
2022/12/10 01:23:10;;;;;;;38.30;17.60;;;0.30;99.90;;;;;;5064065;28;20201;-54
2022/12/10 01:25:37;;;;;;;31.97;15.93;;;0.30;99.90;;;;;;5064935;28;21081;-50
2022/12/10 01:28:03;;;;;;;33.43;15.17;;;0.30;99.90;;;;;;5065482;28;20190;-59
2022/12/10 01:30:30;;;;;;;36.50;17.10;;;0.30;99.90;;;;;;5062161;28;20214;-44
2022/12/10 01:32:57;;;;;;;39.47;17.77;;;0.30;99.90;;;;;;5060139;28;20218;-52
2022/12/10 01:35:24;;;;;;;37.57;15.60;;;0.30;99.90;;;;;;5047857;28;20769;-44
2022/12/10 01:37:51;;;;;;;32.17;15.80;;;0.30;99.90;;;;;;5065670;28;20201;-50
2022/12/10 01:40:19;;;;;;;34.80;16.20;;;0.30;99.90;;;;;;5060892;28;20256;-57
2022/12/10 01:42:47;;;;;;;32.43;15.53;;;0.20;99.90;;;;;;5065878;28;20201;-44
2022/12/10 01:45:15;;;;;;;31.53;15.80;;;0.20;99.90;;;;;;5060218;28;20191;-59
2022/12/10 01:47:42;;;;;;;31.40;14.67;;;0.30;99.90;;;;;;5059415;28;20294;-46
2022/12/10 01:50:09;;;;;;;26.20;14.03;;;0.20;99.90;;;;;;5055533;28;20218;-60
2022/12/10 01:52:38;;;;;;;21.67;11.60;;;0.20;99.90;;;;;;5058404;28;21114;-46
2022/12/10 01:55:29;;;;;;;22.37;11.90;;;0.20;99.90;;;;;;5063179;28;20194;-59
2022/12/10 01:57:58;;;;;;;22.30;11.03;;;0.10;99.90;;;;;;5061064;28;20213;-48
2022/12/10 02:00:24;;;;;;;20.80;10.77;;;0.20;99.90;;;;;;5055931;28;20222;-45
2022/12/10 02:02:56;;;;;;;20.77;10.77;;;0.20;99.90;;;;;;5065613;28;20680;-44
2022/12/10 02:05:31;;;;;;;18.90;10.90;;;0.10;99.90;;;;;;5049514;28;20213;-46
2022/12/10 02:08:07;;;;;;;22.23;11.17;;;0.10;99.90;;;;;;5051167;28;20219;-56
2022/12/10 02:10:50;;;;;;;15.03;8.63;;;0.20;99.90;;;;;;5065537;28;20248;-49
2022/12/10 02:13:25;;;;;;;14.40;8.90;;;0.10;99.90;;;;;;5054848;28;20229;-58
2022/12/10 02:15:57;;;;;;;15.77;8.33;;;0.10;99.90;;;;;;5060304;28;20695;-53
2022/12/10 02:18:29;;;;;;;15.60;9.60;;;0.10;99.90;;;;;;5057892;28;20204;-44
2022/12/10 02:20:59;;;;;;;13.63;8.47;;;0.20;99.90;;;;;;5058237;28;20320;-49
2022/12/10 02:23:31;;;;;;;15.50;9.07;;;0.20;99.90;;;;;;5046818;28;20190;-48
2022/12/10 02:26:03;;;;;;;16.90;9.03;;;0.20;99.90;;;;;;5063729;28;20209;-49
2022/12/10 02:28:39;;;;;;;17.07;10.63;;;0.10;99.90;;;;;;5061463;28;20209;-53
2022/12/10 02:31:12;;;;;;;19.73;10.13;;;0.10;99.90;;;;;;5055725;28;20275;-57
2022/12/10 02:33:48;;;;;;;14.50;9.20;;;0.20;99.90;;;;;;5056500;28;20226;-51
2022/12/10 02:36:16;;;;;;;16.80;8.73;;;0.10;99.90;;;;;;5054737;28;20206;-58
2022/12/10 02:38:44;;;;;;;15.77;8.23;;;0.20;99.90;;;;;;5049244;28;20207;-47
2022/12/10 02:41:16;;;;;;;12.73;8.30;;;0.20;99.90;;;;;;5060894;28;20228;-58
2022/12/10 02:43:46;;;;;;;12.13;7.77;;;0.10;99.90;;;;;;5063325;28;20301;-49
2022/12/10 02:46:15;;;;;;;12.07;8.13;;;0.20;99.90;;;;;;5053439;28;20222;-51
2022/12/10 02:48:43;;;;;;;12.67;8.83;;;0.20;99.90;;;;;;5060301;28;20234;-58
2022/12/10 02:51:10;;;;;;;13.20;8.07;;;0.20;99.90;;;;;;5056879;28;20316;-46
2022/12/10 02:53:42;;;;;;;16.23;8.07;;;0.20;99.90;;;;;;5046512;28;20265;-57
2022/12/10 02:56:19;;;;;;;11.80;7.10;;;0.20;99.90;;;;;;5063626;28;20246;-48
2022/12/10 02:59:02;;;;;;;13.00;8.60;;;0.20;99.90;;;;;;5059791;28;20208;-57
2022/12/10 03:01:38;;;;;;;13.17;8.27;;;0.20;99.90;;;;;;5058833;28;20230;-46
2022/12/10 03:04:12;;;;;;;11.83;7.93;;;0.20;99.90;;;;;;5062929;28;20272;-50
2022/12/10 03:06:43;;;;;;;11.57;7.60;;;0.20;99.90;;;;;;5056378;28;20207;-57
2022/12/10 03:09:13;;;;;;;12.40;7.93;;;0.20;99.90;;;;;;5049798;28;20572;-49
2022/12/10 03:11:44;;;;;;;11.50;7.70;;;0.20;99.90;;;;;;5061203;28;20221;-57
2022/12/10 03:14:15;;;;;;;13.47;6.97;;;0.20;99.90;;;;;;5063861;28;20225;-45
2022/12/10 03:16:47;;;;;;;12.53;7.80;;;0.20;99.90;;;;;;5058635;28;20225;-59
2022/12/10 03:19:18;;;;;;;11.73;7.90;;;0.20;99.90;;;;;;5057479;28;20216;-44
2022/12/10 03:21:47;;;;;;;16.77;8.20;;;0.20;99.90;;;;;;5055487;28;20249;-60
2022/12/10 03:24:16;;;;;;;14.13;7.77;;;0.20;99.90;;;;;;5064267;28;20280;-49
2022/12/10 03:26:46;;;;;;;16.20;8.93;;;0.20;99.90;;;;;;5046632;28;20233;-59
2022/12/10 03:29:18;;;;;;;13.60;8.07;;;0.20;99.90;;;;;;5063848;28;20218;-46
2022/12/10 03:31:47;;;;;;;13.83;7.83;;;0.20;99.90;;;;;;5056873;28;20225;-58
2022/12/10 03:34:14;;;;;;;13.27;7.90;;;0.20;99.90;;;;;;5063998;28;20219;-53
2022/12/10 03:36:42;;;;;;;11.50;7.97;;;0.20;99.90;;;;;;5058610;28;20201;-59
2022/12/10 03:39:10;;;;;;;10.83;7.27;;;0.20;99.90;;;;;;5061528;28;20281;-44
2022/12/10 03:41:37;;;;;;;13.33;8.10;;;0.20;99.90;;;;;;5047459;28;20237;-57
2022/12/10 03:44:04;;;;;;;14.63;8.77;;;0.20;99.90;;;;;;5061661;28;20277;-44
2022/12/10 03:46:32;;;;;;;14.97;8.27;;;0.20;99.90;;;;;;5057497;28;20199;-53
2022/12/10 03:49:01;;;;;;;15.07;7.50;;;0.20;99.90;;;;;;5059021;28;20388;-48
2022/12/10 03:51:29;;;;;;;15.17;8.60;;;0.20;99.90;;;;;;5063301;28;20229;-47
2022/12/10 03:53:57;;;;;;;16.33;8.13;;;0.10;99.90;;;;;;5054240;28;20288;-51
2022/12/10 03:56:24;;;;;;;16.13;8.23;;;0.20;99.90;;;;;;5049068;28;20226;-47
2022/12/10 03:58:50;;;;;;;15.03;8.63;;;0.20;99.90;;;;;;5059404;28;20712;-49
2022/12/10 04:01:18;;;;;;;14.10;7.67;;;0.30;99.90;;;;;;5063554;28;20229;-48
2022/12/10 04:03:45;;;;;;;12.50;8.27;;;0.30;99.90;;;;;;5060049;28;20198;-58
2022/12/10 04:06:16;;;;;;;13.20;8.57;;;0.20;99.90;;;;;;5063106;28;20217;-53
2022/12/10 04:08:43;;;;;;;14.23;8.37;;;0.20;99.90;;;;;;5055012;28;20194;-58
2022/12/10 04:11:11;;;;;;;12.93;8.03;;;0.30;99.90;;;;;;5062690;28;20218;-44
2022/12/10 04:16:28;;;;;;;14.27;7.93;;;0.30;99.90;;;;;;5059811;28;20297;-48
2022/12/10 04:18:57;;;;;;;12.00;8.37;;;0.30;99.90;;;;;;5059184;28;20278;-51
2022/12/10 04:26:58;;;;;;;11.77;7.47;;;0.30;99.90;;;;;;5045049;28;20202;-48
2022/12/10 04:29:27;;;;;;;13.67;8.10;;;0.30;99.90;;;;;;5051972;28;20438;-49
2022/12/10 04:31:56;;;;;;;13.43;7.93;;;0.30;99.90;;;;;;5061957;28;20218;-51
2022/12/10 04:34:23;;;;;;;14.80;7.73;;;0.30;99.90;;;;;;5054640;28;20488;-46
2022/12/10 04:36:51;;;;;;;12.17;8.53;;;0.30;99.90;;;;;;5063096;28;20676;-49
2022/12/10 04:39:19;;;;;;;13.43;7.73;;;0.30;99.90;;;;;;5053403;28;20865;-45
2022/12/10 04:41:48;;;;;;;12.53;7.23;;;0.30;99.90;;;;;;5062693;28;20214;-52
2022/12/10 04:44:16;;;;;;;14.03;7.90;;;0.40;99.90;;;;;;5044042;28;20198;-46
2022/12/10 04:46:42;;;;;;;17.10;9.27;;;0.30;99.90;;;;;;5062956;28;20191;-51
2022/12/10 04:49:09;;;;;;;15.03;8.93;;;0.30;99.90;;;;;;5059804;28;20197;-57
2022/12/10 04:51:36;;;;;;;16.07;8.40;;;0.40;99.90;;;;;;5057303;28;20619;-51
2022/12/10 04:54:06;;;;;;;13.27;8.43;;;0.30;99.90;;;;;;5059069;28;20233;-58
2022/12/10 04:56:33;;;;;;;14.23;7.80;;;0.30;99.90;;;;;;5059420;28;20264;-48
2022/12/10 04:59:01;;;;;;;14.57;9.17;;;0.30;99.90;;;;;;5043356;28;20205;-60
2022/12/10 05:01:29;;;;;;;13.53;8.07;;;0.30;99.90;;;;;;5060556;28;20326;-47
2022/12/10 05:03:59;;;;;;;13.57;7.73;;;0.30;99.90;;;;;;5062230;28;20209;-54
2022/12/10 05:06:27;;;;;;;14.90;8.90;;;0.30;99.90;;;;;;5055064;28;20288;-47
2022/12/10 05:08:53;;;;;;;12.10;8.37;;;0.30;99.90;;;;;;5062978;28;20213;-50
2022/12/10 05:11:23;;;;;;;13.10;8.23;;;0.30;99.90;;;;;;5053180;28;20214;-46
2022/12/10 05:13:51;;;;;;;13.13;8.23;;;0.30;99.90;;;;;;5048143;28;20221;-44
2022/12/10 05:16:19;;;;;;;12.70;8.30;;;0.30;99.90;;;;;;5052715;28;20206;-48
2022/12/10 05:18:46;;;;;;;12.27;7.73;;;0.30;99.90;;;;;;5062446;28;20229;-46
2022/12/10 05:21:17;;;;;;;15.87;7.97;;;0.30;99.90;;;;;;5054079;28;20318;-60
2022/12/10 05:23:45;;;;;;;13.83;8.37;;;0.30;99.90;;;;;;5061703;28;20673;-45
2022/12/10 05:26:14;;;;;;;12.77;8.00;;;0.30;99.90;;;;;;5054482;28;20660;-57
2022/12/10 05:28:46;;;;;;;13.77;8.37;;;0.40;99.90;;;;;;5062437;28;20198;-44
2022/12/10 05:31:14;;;;;;;14.37;7.53;;;0.40;99.90;;;;;;5042092;28;20229;-57
2022/12/10 05:33:41;;;;;;;11.10;7.23;;;0.30;99.90;;;;;;5056519;28;20230;-48
2022/12/10 05:36:11;;;;;;;13.23;8.20;;;0.30;99.90;;;;;;5060927;28;20285;-56
2022/12/10 05:38:40;;;;;;;17.00;8.40;;;0.30;99.90;;;;;;5064879;28;20210;-48
2022/12/10 05:41:09;;;;;;;12.03;8.10;;;0.30;99.90;;;;;;5060215;28;20230;-59
2022/12/10 05:43:39;;;;;;;13.27;8.27;;;0.30;99.90;;;;;;5065523;28;20195;-47
2022/12/10 05:46:12;;;;;;;13.30;8.00;;;0.30;99.90;;;;;;5048940;28;20702;-57
2022/12/10 05:48:39;;;;;;;12.00;7.97;;;0.30;99.90;;;;;;5066158;28;20284;-47
2022/12/10 05:51:08;;;;;;;11.37;6.90;;;0.30;99.90;;;;;;5055204;28;20729;-58
2022/12/10 05:53:36;;;;;;;12.83;7.83;;;0.20;99.90;;;;;;5059882;28;20226;-45
2022/12/10 05:56:04;;;;;;;11.57;7.20;;;0.20;99.90;;;;;;5064391;28;20750;-57
2022/12/10 05:58:32;;;;;;;13.10;7.10;;;0.20;99.90;;;;;;5058225;28;20206;-45
2022/12/10 06:00:59;;;;;;;12.77;7.77;;;0.20;99.90;;;;;;5050205;28;20226;-57
2022/12/10 06:03:28;;;;;;;11.13;7.57;;;0.20;99.90;;;;;;5062757;28;20193;-50
2022/12/10 06:05:55;;;;;;;11.63;7.30;;;0.20;99.90;;;;;;5065320;28;20217;-57
2022/12/10 06:08:23;;;;;;;14.70;8.10;;;0.30;99.90;;;;;;5057343;28;20199;-51
2022/12/10 06:10:49;;;;;;;11.90;7.90;;;0.30;99.90;;;;;;5065918;28;20383;-45
2022/12/10 06:13:16;;;;;;;12.90;8.20;;;0.30;99.90;;;;;;5054104;28;20241;-54
2022/12/10 06:15:46;;;;;;;12.10;7.93;;;0.20;99.90;;;;;;5065244;28;20540;-45
2022/12/10 06:18:13;;;;;;;12.13;8.33;;;0.20;99.90;;;;;;5046526;28;20202;-59
2022/12/10 06:20:42;;;;;;;13.20;8.53;;;0.20;99.90;;;;;;5065324;28;20237;-46
2022/12/10 06:23:08;;;;;;;12.00;7.63;;;0.20;99.90;;;;;;5062473;28;20271;-57
2022/12/10 06:25:38;;;;;;;12.73;8.20;;;0.20;99.90;;;;;;5059730;28;20201;-43
2022/12/10 06:28:05;;;;;;;11.43;7.57;;;0.20;99.90;;;;;;5063248;28;20601;-58
2022/12/10 06:30:35;;;;;;;10.53;6.97;;;0.10;99.90;;;;;;5058608;28;20324;-47
2022/12/10 06:33:02;;;;;;;11.90;8.17;;;0.10;99.90;;;;;;5047995;28;20616;-57
2022/12/10 06:35:29;;;;;;;13.83;8.47;;;0.10;99.90;;;;;;5063723;28;20482;-49
2022/12/10 06:37:57;;;;;;;11.27;7.07;;;0.10;99.90;;;;;;5064863;28;20224;-52
2022/12/10 06:40:24;;;;;;;11.50;7.80;;;0.10;99.90;;;;;;5057271;28;20323;-45
2022/12/10 06:42:52;;;;;;;11.53;7.37;;;0.10;99.90;;;;;;5064727;28;20199;-50
2022/12/10 06:45:22;;;;;;;11.67;7.37;;;0.10;99.90;;;;;;5054713;28;20211;-48
2022/12/10 06:47:48;;;;;;;11.00;7.07;;;0.10;99.90;;;;;;5049953;28;20656;-43
2022/12/10 06:50:38;;;;;;;10.83;7.10;;;0.10;99.90;;;;;;5064241;28;20606;-49
2022/12/10 06:53:06;;;;;;;12.20;7.33;;;0.00;99.90;;;;;;5062620;28;20206;-56
2022/12/10 06:55:33;;;;;;;11.80;7.30;;;0.00;99.90;;;;;;5057541;28;20209;-46
2022/12/10 06:58:00;;;;;;;10.40;7.73;;;0.00;99.90;;;;;;5063956;28;20561;-56
2022/12/10 07:00:26;;;;;;;11.70;8.17;;;0.00;99.90;;;;;;5062062;28;20206;-44
2022/12/10 07:02:53;;;;;;;11.37;8.07;;;0.00;99.90;;;;;;5045452;28;20214;-45
2022/12/10 07:05:20;;;;;;;13.60;7.73;;;0.00;99.90;;;;;;5060542;28;20939;-46
2022/12/10 07:07:47;;;;;;;8.83;7.07;;;0.00;99.90;;;;;;5064607;28;20288;-46
2022/12/10 07:10:15;;;;;;;13.17;7.87;;;0.00;99.90;;;;;;5060905;28;20226;-53
2022/12/10 07:12:42;;;;;;;11.00;7.93;;;0.00;99.90;;;;;;5059535;28;20219;-50
2022/12/10 07:15:10;;;;;;;10.70;8.40;;;0.00;99.90;;;;;;5061797;28;20213;-50
2022/12/10 07:17:36;;;;;;;14.27;8.07;;;0.10;99.90;;;;;;5057527;28;20224;-49
2022/12/10 07:20:04;;;;;;;10.37;7.63;;;0.00;99.90;;;;;;5040904;28;20236;-53
2022/12/10 07:22:30;;;;;;;11.03;7.73;;;0.00;99.90;;;;;;5061974;28;20202;-48
2022/12/10 07:24:57;;;;;;;12.00;8.00;;;0.00;99.90;;;;;;5063815;28;20198;-51
2022/12/10 07:27:26;;;;;;;11.50;7.93;;;-0.10;99.90;;;;;;5056208;28;20202;-50
2022/12/10 07:29:53;;;;;;;12.27;8.53;;;-0.10;99.90;;;;;;5064220;28;20544;-46
2022/12/10 07:32:20;;;;;;;10.93;7.63;;;-0.10;99.90;;;;;;5059690;28;20197;-47
2022/12/10 07:34:47;;;;;;;13.70;8.20;;;-0.10;99.90;;;;;;5043494;28;20233;-47
2022/12/10 07:37:14;;;;;;;13.73;8.17;;;-0.10;99.90;;;;;;5059578;28;20205;-53
2022/12/10 07:39:42;;;;;;;12.40;8.00;;;-0.10;99.90;;;;;;5063886;28;20239;-45
2022/12/10 07:42:09;;;;;;;12.97;8.43;;;-0.10;99.90;;;;;;5050035;28;20207;-52
2022/12/10 07:44:39;;;;;;;12.63;8.03;;;-0.10;99.90;;;;;;5063511;28;20205;-45
2022/12/10 07:47:06;;;;;;;12.27;8.20;;;-0.10;99.90;;;;;;5055898;28;20724;-53
2022/12/10 07:49:33;;;;;;;12.00;7.77;;;-0.20;99.90;;;;;;5056303;28;20208;-48
2022/12/10 07:52:01;;;;;;;11.67;7.90;;;-0.20;99.90;;;;;;5046726;28;20232;-51
2022/12/10 07:54:28;;;;;;;13.47;8.30;;;-0.10;99.90;;;;;;5061006;28;20350;-44
2022/12/10 07:56:55;;;;;;;14.10;8.00;;;-0.20;99.90;;;;;;5061930;28;20209;-56
2022/12/10 07:59:21;;;;;;;11.97;7.30;;;-0.20;99.90;;;;;;5057297;28;20207;-48
2022/12/10 08:01:50;;;;;;;11.33;7.17;;;-0.20;99.90;;;;;;5063245;28;20219;-52
2022/12/10 08:04:17;;;;;;;9.30;6.87;;;-0.20;99.90;;;;;;5054516;28;20207;-47
2022/12/10 08:06:44;;;;;;;12.60;7.57;;;-0.20;99.90;;;;;;5048617;28;20608;-49
2022/12/10 08:09:11;;;;;;;11.97;6.83;;;-0.30;99.90;;;;;;5059213;28;20198;-46
2022/12/10 08:11:38;;;;;;;8.03;6.33;;;-0.30;99.90;;;;;;5063347;28;20214;-52
2022/12/10 08:14:05;;;;;;;12.03;6.70;;;-0.30;99.90;;;;;;5054987;28;20229;-53
2022/12/10 08:16:32;;;;;;;9.03;6.67;;;-0.30;99.90;;;;;;5062836;28;20663;-48
2022/12/10 08:19:01;;;;;;;9.80;6.27;;;-0.40;99.90;;;;;;5058393;28;20220;-53
2022/12/10 08:21:30;;;;;;;9.03;6.37;;;-0.40;99.90;;;;;;5045689;28;20245;-53
2022/12/10 08:23:57;;;;;;;9.00;5.97;;;-0.40;99.90;;;;;;5061683;28;20201;-52
2022/12/10 08:26:26;;;;;;;8.60;6.47;;;-0.40;99.90;;;;;;5061352;28;20204;-45
2022/12/10 08:28:54;;;;;;;9.87;7.13;;;-0.40;99.90;;;;;;5062576;28;20213;-51
2022/12/10 08:31:24;;;;;;;9.83;7.20;;;-0.40;99.90;;;;;;5056062;28;20425;-49
2022/12/10 08:33:51;;;;;;;11.23;7.23;;;-0.40;99.90;;;;;;5062279;28;20324;-53
2022/12/10 08:36:20;;;;;;;10.90;6.20;;;-0.40;99.90;;;;;;5039731;28;20221;-47
2022/12/10 08:38:48;;;;;;;9.77;6.37;;;-0.40;99.90;;;;;;5062276;28;20668;-45
2022/12/10 08:41:17;;;;;;;7.87;6.13;;;-0.40;99.90;;;;;;5058995;28;20221;-50
2022/12/10 08:43:44;;;;;;;8.20;5.63;;;-0.40;99.90;;;;;;5062633;28;20196;-49
2022/12/10 08:46:13;;;;;;;7.40;6.03;;;-0.40;99.90;;;;;;5048732;28;20197;-46
2022/12/10 08:48:40;;;;;;;8.33;6.13;;;-0.40;99.90;;;;;;5062729;28;20842;-49
2022/12/10 08:51:08;;;;;;;9.60;6.47;;;-0.40;99.90;;;;;;5052397;28;20370;-50
2022/12/10 08:53:36;;;;;;;10.87;6.90;;;-0.40;99.90;;;;;;5044474;28;20878;-48
2022/12/10 08:56:04;;;;;;;8.03;5.93;;;-0.30;99.90;;;;;;5059826;28;20664;-52
2022/12/10 08:58:30;;;;;;;9.97;6.30;;;-0.30;99.90;;;;;;5062090;28;20212;-48
2022/12/10 09:00:58;;;;;;;9.07;6.30;;;-0.30;99.90;;;;;;5059838;28;20217;-51
2022/12/10 09:03:26;;;;;;;8.57;6.13;;;-0.30;99.90;;;;;;5057866;28;20284;-45
2022/12/10 09:05:53;;;;;;;9.10;6.40;;;-0.20;99.90;;;;;;5061193;28;20292;-51
2022/12/10 09:08:20;;;;;;;7.40;5.93;;;-0.30;99.90;;;;;;5039656;28;20206;-45
2022/12/10 09:10:48;;;;;;;6.83;6.03;;;-0.30;99.90;;;;;;5065975;28;20249;-44
2022/12/10 09:13:15;;;;;;;9.83;5.87;;;-0.30;99.90;;;;;;5062619;28;20204;-45
2022/12/10 09:15:49;;;;;;;9.20;5.90;;;-0.30;99.90;;;;;;5066568;28;20270;-50
2022/12/10 09:18:16;;;;;;;7.33;5.90;;;-0.30;99.90;;;;;;5057976;28;20886;-48
2022/12/10 09:20:42;;;;;;;8.80;6.00;;;-0.30;99.90;;;;;;5065640;28;20286;-50
2022/12/10 09:23:09;;;;;;;9.77;6.07;;;-0.30;99.90;;;;;;5036390;28;20221;-48
2022/12/10 09:25:36;;;;;;;9.03;6.50;;;-0.30;99.90;;;;;;5066487;28;20221;-48
2022/12/10 09:28:04;;;;;;;9.87;6.83;;;-0.30;99.90;;;;;;5063512;28;20254;-54
2022/12/10 09:30:31;;;;;;;9.00;6.17;;;-0.30;99.90;;;;;;5064530;28;20234;-52
2022/12/10 09:32:58;;;;;;;11.47;7.13;;;-0.40;99.90;;;;;;5062214;28;20217;-53
2022/12/10 09:35:25;;;;;;;9.27;6.17;;;-0.40;99.90;;;;;;5062283;28;20240;-46
2022/12/10 09:37:53;;;;;;;9.27;6.07;;;-0.30;99.90;;;;;;5059845;28;20204;-54
2022/12/10 09:40:36;;;;;;;9.73;6.97;;;-0.30;99.90;;;;;;5048483;28;20305;-52
2022/12/10 09:43:15;;;;;;;10.93;7.20;;;-0.30;99.90;;;;;;5062996;28;20212;-54
2022/12/10 09:45:53;;;;;;;9.00;6.53;;;-0.20;99.90;;;;;;5061226;28;20565;-48
2022/12/10 09:48:27;;;;;;;8.10;5.80;;;-0.20;99.90;;;;;;5057072;28;20326;-51
2022/12/10 09:51:00;;;;;;;7.10;5.43;;;-0.30;99.90;;;;;;5065202;28;20715;-55
2022/12/10 09:53:29;;;;;;;7.17;5.43;;;-0.40;99.90;;;;;;5059316;28;20206;-47
2022/12/10 09:55:58;;;;;;;10.30;6.30;;;-0.40;99.90;;;;;;5049422;28;20225;-53
2022/12/10 09:58:28;;;;;;;10.87;7.00;;;-0.40;99.90;;;;;;5064455;28;20189;-43
2022/12/10 10:00:58;;;;;;;9.67;6.23;;;-0.40;99.90;;;;;;5064810;28;20220;-56
2022/12/10 10:03:26;;;;;;;14.30;5.93;;;-0.40;99.90;;;;;;5058815;28;20212;-48
2022/12/10 10:05:56;;;;;;;10.33;6.43;;;-0.30;99.90;;;;;;5064947;28;20659;-57
2022/12/10 10:08:29;;;;;;;10.73;6.90;;;-0.30;99.90;;;;;;5057301;28;20215;-47
2022/12/10 10:10:56;;;;;;;10.00;6.57;;;-0.20;99.90;;;;;;5051114;28;20224;-56
2022/12/10 10:13:32;;;;;;;7.93;5.40;;;-0.20;99.90;;;;;;5057254;28;20788;-49
2022/12/10 10:16:18;;;;;;;7.43;5.53;;;-0.20;99.90;;;;;;5059533;28;20228;-56
2022/12/10 10:18:49;;;;;;;7.20;5.60;;;-0.20;99.90;;;;;;5064955;28;20197;-54
2022/12/10 10:21:22;;;;;;;8.07;5.83;;;-0.10;99.90;;;;;;5055875;28;20367;-48
2022/12/10 10:23:49;;;;;;;8.77;6.17;;;-0.10;99.90;;;;;;5059165;28;20209;-50
2022/12/10 10:26:15;;;;;;;9.47;6.20;;;0.00;99.90;;;;;;5047156;28;20208;-52
2022/12/10 10:28:45;;;;;;;9.90;6.63;;;0.00;99.90;;;;;;5064929;28;20202;-44
2022/12/10 10:31:20;;;;;;;9.53;6.67;;;0.00;99.90;;;;;;5061338;28;20213;-45
2022/12/10 10:33:56;;;;;;;10.07;6.80;;;0.00;99.90;;;;;;5064876;28;20197;-47
2022/12/10 10:36:25;;;;;;;9.73;5.73;;;0.00;99.90;;;;;;5059443;28;20206;-45
2022/12/10 10:38:52;;;;;;;8.60;6.20;;;0.00;99.90;;;;;;5059114;28;20214;-58
2022/12/10 10:41:19;;;;;;;9.70;6.73;;;-0.10;99.90;;;;;;5040937;28;20476;-49
2022/12/10 10:43:59;;;;;;;10.27;6.50;;;0.00;99.90;;;;;;5057372;28;20281;-60
2022/12/10 10:46:27;;;;;;;9.57;6.30;;;0.00;99.90;;;;;;5056135;28;20195;-50
2022/12/10 10:49:14;;;;;;;7.57;5.60;;;0.10;99.90;;;;;;5060207;28;20496;-51
2022/12/10 10:51:43;;;;;;;11.27;6.73;;;0.10;99.90;;;;;;5058372;28;20226;-54
2022/12/10 10:54:11;;;;;;;8.67;6.40;;;0.10;99.90;;;;;;5057742;28;20202;-45
2022/12/10 10:56:42;;;;;;;10.23;7.37;;;0.20;99.90;;;;;;5059255;28;20226;-55
2022/12/10 10:59:30;;;;;;;8.30;6.30;;;0.10;99.90;;;;;;5056715;28;20291;-43
2022/12/10 11:02:04;;;;;;;9.10;6.33;;;0.20;99.90;;;;;;5056576;28;20214;-44
2022/12/10 11:04:37;;;;;;;8.47;6.17;;;0.20;99.90;;;;;;5064525;28;20666;-46
2022/12/10 11:07:06;;;;;;;8.07;5.80;;;0.30;99.90;;;;;;5056302;28;20828;-49
2022/12/10 11:09:34;;;;;;;10.47;6.93;;;0.30;99.90;;;;;;5064768;28;20198;-46
2022/12/10 11:12:04;;;;;;;9.63;7.03;;;0.40;99.90;;;;;;5055018;28;20233;-48
2022/12/10 11:14:38;;;;;;;10.03;5.80;;;0.30;99.90;;;;;;5049210;28;20213;-51
2022/12/10 11:17:19;;;;;;;7.13;5.40;;;0.30;99.90;;;;;;5057701;28;20290;-45
2022/12/10 11:19:59;;;;;;;10.80;7.73;;;0.30;99.90;;;;;;5055887;28;20210;-57
2022/12/10 11:22:28;;;;;;;8.90;6.57;;;0.30;99.90;;;;;;5058794;28;20198;-43
2022/12/10 11:24:55;;;;;;;10.00;6.30;;;0.30;99.90;;;;;;5054652;28;20214;-50
2022/12/10 11:27:50;;;;;;;9.00;6.03;;;0.30;99.90;;;;;;5064346;28;20547;-47
2022/12/10 11:30:22;;;;;;;10.63;6.50;;;0.20;99.90;;;;;;5049288;28;20675;-50
2022/12/10 11:33:16;;;;;;;7.47;6.07;;;0.20;99.90;;;;;;5054655;28;20213;-58
2022/12/10 11:35:51;;;;;;;11.13;6.37;;;0.30;99.90;;;;;;5060733;28;20221;-57
2022/12/10 11:38:24;;;;;;;9.27;6.67;;;0.30;99.90;;;;;;5063437;28;20259;-47
2022/12/10 11:40:56;;;;;;;9.50;6.33;;;0.30;99.90;;;;;;5055951;28;20622;-59
2022/12/10 11:43:40;;;;;;;7.60;5.90;;;0.30;99.90;;;;;;5063830;28;20198;-52
2022/12/10 11:46:25;;;;;;;7.80;6.13;;;0.30;99.90;;;;;;5049092;28;20572;-50
2022/12/10 11:49:03;;;;;;;7.97;5.40;;;0.30;99.90;;;;;;5059743;28;20214;-56
2022/12/10 11:52:02;;;;;;;7.83;6.23;;;0.20;99.90;;;;;;5055293;28;20232;-59
2022/12/10 11:54:53;;;;;;;6.67;5.57;;;0.30;99.90;;;;;;5049499;28;20219;-59
2022/12/10 11:57:31;;;;;;;10.27;7.23;;;0.30;99.90;;;;;;5051561;28;20201;-57
2022/12/10 12:00:03;;;;;;;10.50;6.80;;;0.30;99.90;;;;;;5044700;28;20216;-45
2022/12/10 12:02:56;;;;;;;10.33;6.80;;;0.30;99.90;;;;;;5059620;28;20293;-59
2022/12/10 12:05:37;;;;;;;9.67;6.33;;;0.30;99.90;;;;;;5060989;28;20297;-57
2022/12/10 12:08:12;;;;;;;9.70;6.80;;;0.30;99.90;;;;;;5058481;28;20197;-48
2022/12/10 12:11:06;;;;;;;10.43;6.83;;;0.30;99.90;;;;;;5059592;28;20216;-43
2022/12/10 12:13:38;;;;;;;10.10;6.40;;;0.30;99.90;;;;;;5048298;28;20216;-58
2022/12/10 12:16:12;;;;;;;10.93;7.03;;;0.30;99.90;;;;;;5049198;28;20221;-54
2022/12/10 12:18:48;;;;;;;9.27;6.77;;;0.20;99.90;;;;;;5058954;28;20917;-47
2022/12/10 12:21:17;;;;;;;9.40;6.67;;;0.10;99.90;;;;;;5063460;28;20786;-46
2022/12/10 12:23:50;;;;;;;11.93;6.60;;;0.20;99.90;;;;;;5054505;28;20475;-47
2022/12/10 12:26:24;;;;;;;10.10;6.37;;;0.20;99.90;;;;;;5063043;28;20205;-56
2022/12/10 12:28:56;;;;;;;9.97;7.00;;;0.30;99.90;;;;;;5055816;28;20763;-45
2022/12/10 12:31:28;;;;;;;10.13;6.90;;;0.20;99.90;;;;;;5055493;28;20218;-59
2022/12/10 12:34:02;;;;;;;8.97;6.57;;;0.20;99.90;;;;;;5057387;28;20226;-44
2022/12/10 12:36:33;;;;;;;10.07;6.30;;;0.20;99.90;;;;;;5060495;28;20221;-57
2022/12/10 12:39:06;;;;;;;8.53;5.90;;;0.20;99.90;;;;;;5059169;28;20288;-42
2022/12/10 12:41:45;;;;;;;10.07;6.40;;;0.20;99.90;;;;;;5059676;28;20229;-57
2022/12/10 12:44:19;;;;;;;8.53;5.97;;;0.20;99.90;;;;;;5054482;28;20190;-45
2022/12/10 12:46:48;;;;;;;7.43;6.27;;;0.10;99.90;;;;;;5037374;28;20677;-45
2022/12/10 12:49:41;;;;;;;8.33;5.90;;;0.10;99.90;;;;;;5054110;28;20204;-49
2022/12/10 12:52:29;;;;;;;9.77;6.00;;;0.10;99.90;;;;;;5062765;28;20664;-44
2022/12/10 12:55:01;;;;;;;8.37;6.33;;;0.10;99.90;;;;;;5057166;28;20221;-47
2022/12/10 12:57:36;;;;;;;9.23;6.60;;;0.20;99.90;;;;;;5060803;28;20199;-56
2022/12/10 13:00:06;;;;;;;8.10;6.30;;;0.10;99.90;;;;;;5063288;28;20229;-46
2022/12/10 13:02:56;;;;;;;8.17;6.47;;;0.10;99.90;;;;;;5038888;28;20207;-57
2022/12/10 13:05:29;;;;;;;8.17;5.97;;;0.10;99.90;;;;;;5059799;28;20240;-57
2022/12/10 13:08:26;;;;;;;10.37;6.53;;;0.00;99.90;;;;;;5061897;28;20668;-48
2022/12/10 13:11:15;;;;;;;7.87;5.77;;;0.10;99.90;;;;;;5051573;28;20238;-43